sensor_id;sensor_type;location;lat;lon;timestamp;temperature;humidity
2022;DHT22;1015;49.756;6.994;2022-07-10T00:00:10;13.90;99.90
2022;DHT22;1015;49.756;6.994;2022-07-10T00:02:38;13.90;99.90
2022;DHT22;1015;49.756;6.994;2022-07-10T00:05:06;13.90;99.90
2022;DHT22;1015;49.756;6.994;2022-07-10T00:07:33;13.80;99.90
2022;DHT22;1015;49.756;6.994;2022-07-10T00:10:02;13.80;99.90
2022;DHT22;1015;49.756;6.994;2022-07-10T00:12:30;13.80;99.90
2022;DHT22;1015;49.756;6.994;2022-07-10T00:14:57;13.80;99.90
2022;DHT22;1015;49.756;6.994;2022-07-10T00:17:23;13.70;99.90
2022;DHT22;1015;49.756;6.994;2022-07-10T00:19:50;13.70;99.90
2022;DHT22;1015;49.756;6.994;2022-07-10T00:22:17;13.60;99.90
2022;DHT22;1015;49.756;6.994;2022-07-10T00:24:44;13.70;99.90
2022;DHT22;1015;49.756;6.994;2022-07-10T00:27:13;13.60;99.90
2022;DHT22;1015;49.756;6.994;2022-07-10T00:29:40;13.50;99.90
2022;DHT22;1015;49.756;6.994;2022-07-10T00:32:07;13.40;99.90
2022;DHT22;1015;49.756;6.994;2022-07-10T00:34:34;13.30;99.90
2022;DHT22;1015;49.756;6.994;2022-07-10T00:37:02;13.20;99.90
2022;DHT22;1015;49.756;6.994;2022-07-10T00:39:29;13.00;99.90
2022;DHT22;1015;49.756;6.994;2022-07-10T00:42:05;12.90;99.90
2022;DHT22;1015;49.756;6.994;2022-07-10T00:44:34;13.00;99.90
2022;DHT22;1015;49.756;6.994;2022-07-10T00:47:02;13.00;99.90
2022;DHT22;1015;49.756;6.994;2022-07-10T00:49:29;13.00;99.90
2022;DHT22;1015;49.756;6.994;2022-07-10T00:51:58;13.00;99.90
2022;DHT22;1015;49.756;6.994;2022-07-10T00:54:26;13.00;99.90
2022;DHT22;1015;49.756;6.994;2022-07-10T00:56:54;13.10;99.90
2022;DHT22;1015;49.756;6.994;2022-07-10T00:59:22;13.00;99.90
2022;DHT22;1015;49.756;6.994;2022-07-10T01:01:50;13.00;99.90
2022;DHT22;1015;49.756;6.994;2022-07-10T01:04:18;13.00;99.90
2022;DHT22;1015;49.756;6.994;2022-07-10T01:06:45;13.00;99.90
2022;DHT22;1015;49.756;6.994;2022-07-10T01:09:12;12.90;99.90
2022;DHT22;1015;49.756;6.994;2022-07-10T01:11:39;12.90;99.90
2022;DHT22;1015;49.756;6.994;2022-07-10T01:14:06;12.90;99.90
2022;DHT22;1015;49.756;6.994;2022-07-10T01:16:34;12.90;99.90
2022;DHT22;1015;49.756;6.994;2022-07-10T01:19:02;13.00;99.90
2022;DHT22;1015;49.756;6.994;2022-07-10T01:21:34;12.90;99.90
2022;DHT22;1015;49.756;6.994;2022-07-10T01:24:04;12.90;99.90
2022;DHT22;1015;49.756;6.994;2022-07-10T01:26:32;13.00;99.90
2022;DHT22;1015;49.756;6.994;2022-07-10T01:29:02;13.00;99.90
2022;DHT22;1015;49.756;6.994;2022-07-10T01:31:29;13.10;99.90
2022;DHT22;1015;49.756;6.994;2022-07-10T01:33:56;13.10;99.90
2022;DHT22;1015;49.756;6.994;2022-07-10T01:36:23;13.10;99.90
2022;DHT22;1015;49.756;6.994;2022-07-10T01:38:53;13.10;99.90
2022;DHT22;1015;49.756;6.994;2022-07-10T01:41:20;13.10;99.90
2022;DHT22;1015;49.756;6.994;2022-07-10T01:43:47;13.10;99.90
2022;DHT22;1015;49.756;6.994;2022-07-10T01:46:14;13.10;99.90
2022;DHT22;1015;49.756;6.994;2022-07-10T01:48:42;13.00;99.90
2022;DHT22;1015;49.756;6.994;2022-07-10T01:51:10;13.00;99.90
2022;DHT22;1015;49.756;6.994;2022-07-10T01:53:38;12.90;99.90
2022;DHT22;1015;49.756;6.994;2022-07-10T01:56:09;13.00;99.90
2022;DHT22;1015;49.756;6.994;2022-07-10T01:58:36;13.00;99.90
2022;DHT22;1015;49.756;6.994;2022-07-10T02:01:04;12.90;99.90
2022;DHT22;1015;49.756;6.994;2022-07-10T02:03:31;12.90;99.90
2022;DHT22;1015;49.756;6.994;2022-07-10T02:06:15;12.90;99.90
2022;DHT22;1015;49.756;6.994;2022-07-10T02:08:42;12.90;99.90
2022;DHT22;1015;49.756;6.994;2022-07-10T02:11:10;12.80;99.90
2022;DHT22;1015;49.756;6.994;2022-07-10T02:13:38;12.90;99.90
2022;DHT22;1015;49.756;6.994;2022-07-10T02:16:05;12.80;99.90
2022;DHT22;1015;49.756;6.994;2022-07-10T02:18:32;12.80;99.90
2022;DHT22;1015;49.756;6.994;2022-07-10T02:20:59;12.70;99.90
2022;DHT22;1015;49.756;6.994;2022-07-10T02:23:26;12.70;99.90
2022;DHT22;1015;49.756;6.994;2022-07-10T02:25:53;12.60;99.90
2022;DHT22;1015;49.756;6.994;2022-07-10T02:28:22;12.50;99.90
2022;DHT22;1015;49.756;6.994;2022-07-10T02:30:49;12.40;99.90
2022;DHT22;1015;49.756;6.994;2022-07-10T02:33:16;12.30;99.90
2022;DHT22;1015;49.756;6.994;2022-07-10T02:35:42;12.30;99.90
2022;DHT22;1015;49.756;6.994;2022-07-10T02:38:09;12.20;99.90
2022;DHT22;1015;49.756;6.994;2022-07-10T02:40:36;12.10;99.90
2022;DHT22;1015;49.756;6.994;2022-07-10T02:43:05;11.90;99.90
2022;DHT22;1015;49.756;6.994;2022-07-10T02:45:33;11.80;99.90
2022;DHT22;1015;49.756;6.994;2022-07-10T02:48:00;11.70;99.90
2022;DHT22;1015;49.756;6.994;2022-07-10T02:50:27;11.70;99.90
2022;DHT22;1015;49.756;6.994;2022-07-10T02:52:54;11.60;99.90
2022;DHT22;1015;49.756;6.994;2022-07-10T02:55:21;11.40;99.90
2022;DHT22;1015;49.756;6.994;2022-07-10T02:57:48;11.40;99.90
2022;DHT22;1015;49.756;6.994;2022-07-10T03:00:15;11.40;99.90
2022;DHT22;1015;49.756;6.994;2022-07-10T03:02:43;11.30;99.90
2022;DHT22;1015;49.756;6.994;2022-07-10T03:05:12;11.30;99.90
2022;DHT22;1015;49.756;6.994;2022-07-10T03:07:39;11.20;99.90
2022;DHT22;1015;49.756;6.994;2022-07-10T03:10:07;11.10;99.90
2022;DHT22;1015;49.756;6.994;2022-07-10T03:12:34;11.00;99.90
2022;DHT22;1015;49.756;6.994;2022-07-10T03:15:01;11.00;99.90
2022;DHT22;1015;49.756;6.994;2022-07-10T03:17:28;10.90;99.90
2022;DHT22;1015;49.756;6.994;2022-07-10T03:19:56;10.80;99.90
2022;DHT22;1015;49.756;6.994;2022-07-10T03:22:23;10.80;99.90
2022;DHT22;1015;49.756;6.994;2022-07-10T03:24:50;10.80;99.90
2022;DHT22;1015;49.756;6.994;2022-07-10T03:27:17;10.70;99.90
2022;DHT22;1015;49.756;6.994;2022-07-10T03:29:44;10.60;99.90
2022;DHT22;1015;49.756;6.994;2022-07-10T03:32:12;10.60;99.90
2022;DHT22;1015;49.756;6.994;2022-07-10T03:34:38;10.40;99.90
2022;DHT22;1015;49.756;6.994;2022-07-10T03:37:07;10.30;99.90
2022;DHT22;1015;49.756;6.994;2022-07-10T03:39:34;10.20;99.90
2022;DHT22;1015;49.756;6.994;2022-07-10T03:42:02;10.10;99.90
2022;DHT22;1015;49.756;6.994;2022-07-10T03:44:29;10.10;99.90
2022;DHT22;1015;49.756;6.994;2022-07-10T03:46:55;10.10;99.90
2022;DHT22;1015;49.756;6.994;2022-07-10T03:49:22;10.20;99.90
2022;DHT22;1015;49.756;6.994;2022-07-10T03:51:50;10.30;99.90
2022;DHT22;1015;49.756;6.994;2022-07-10T03:54:18;10.30;99.90
2022;DHT22;1015;49.756;6.994;2022-07-10T03:56:45;10.40;99.90
2022;DHT22;1015;49.756;6.994;2022-07-10T03:59:29;10.40;99.90
2022;DHT22;1015;49.756;6.994;2022-07-10T04:01:56;10.50;99.90
2022;DHT22;1015;49.756;6.994;2022-07-10T04:04:23;10.50;99.90
2022;DHT22;1015;49.756;6.994;2022-07-10T04:06:50;10.60;99.90
2022;DHT22;1015;49.756;6.994;2022-07-10T04:09:18;10.70;99.90
2022;DHT22;1015;49.756;6.994;2022-07-10T04:11:45;10.90;99.90
2022;DHT22;1015;49.756;6.994;2022-07-10T04:14:12;11.00;99.90
2022;DHT22;1015;49.756;6.994;2022-07-10T04:16:39;11.20;99.90
2022;DHT22;1015;49.756;6.994;2022-07-10T04:19:06;11.10;99.90
2022;DHT22;1015;49.756;6.994;2022-07-10T04:21:33;11.00;99.90
2022;DHT22;1015;49.756;6.994;2022-07-10T04:24:00;11.30;99.90
2022;DHT22;1015;49.756;6.994;2022-07-10T04:26:29;11.50;99.90
2022;DHT22;1015;49.756;6.994;2022-07-10T04:28:55;11.70;99.90
2022;DHT22;1015;49.756;6.994;2022-07-10T04:31:22;12.20;99.90
2022;DHT22;1015;49.756;6.994;2022-07-10T04:33:49;12.50;99.90
2022;DHT22;1015;49.756;6.994;2022-07-10T04:36:16;12.80;99.90
2022;DHT22;1015;49.756;6.994;2022-07-10T04:38:44;13.20;99.90
2022;DHT22;1015;49.756;6.994;2022-07-10T04:41:10;13.50;99.90
2022;DHT22;1015;49.756;6.994;2022-07-10T04:43:39;13.90;99.90
2022;DHT22;1015;49.756;6.994;2022-07-10T04:46:06;13.70;99.90
2022;DHT22;1015;49.756;6.994;2022-07-10T04:48:33;13.70;99.90
2022;DHT22;1015;49.756;6.994;2022-07-10T04:51:00;13.80;99.90
2022;DHT22;1015;49.756;6.994;2022-07-10T04:53:27;13.90;99.90
2022;DHT22;1015;49.756;6.994;2022-07-10T04:55:54;13.90;99.90
2022;DHT22;1015;49.756;6.994;2022-07-10T04:58:20;14.50;99.90
2022;DHT22;1015;49.756;6.994;2022-07-10T05:00:49;14.60;99.90
2022;DHT22;1015;49.756;6.994;2022-07-10T05:03:16;14.40;99.90
2022;DHT22;1015;49.756;6.994;2022-07-10T05:05:43;14.50;99.90
2022;DHT22;1015;49.756;6.994;2022-07-10T05:08:10;14.80;99.90
2022;DHT22;1015;49.756;6.994;2022-07-10T05:10:37;14.50;99.90
2022;DHT22;1015;49.756;6.994;2022-07-10T05:13:05;14.60;99.90
2022;DHT22;1015;49.756;6.994;2022-07-10T05:15:32;15.10;99.90
2022;DHT22;1015;49.756;6.994;2022-07-10T05:20:28;15.30;99.90
2022;DHT22;1015;49.756;6.994;2022-07-10T05:22:55;16.20;99.90
2022;DHT22;1015;49.756;6.994;2022-07-10T05:25:22;15.70;99.90
2022;DHT22;1015;49.756;6.994;2022-07-10T05:27:51;15.70;99.90
2022;DHT22;1015;49.756;6.994;2022-07-10T05:30:18;15.80;99.90
2022;DHT22;1015;49.756;6.994;2022-07-10T05:32:45;15.80;99.90
2022;DHT22;1015;49.756;6.994;2022-07-10T05:35:14;16.40;99.90
2022;DHT22;1015;49.756;6.994;2022-07-10T05:37:42;16.60;99.90
2022;DHT22;1015;49.756;6.994;2022-07-10T05:40:09;16.20;99.90
2022;DHT22;1015;49.756;6.994;2022-07-10T05:42:36;16.30;99.90
2022;DHT22;1015;49.756;6.994;2022-07-10T05:45:04;16.00;99.90
2022;DHT22;1015;49.756;6.994;2022-07-10T05:47:31;16.00;99.90
2022;DHT22;1015;49.756;6.994;2022-07-10T05:49:58;15.90;99.90
2022;DHT22;1015;49.756;6.994;2022-07-10T05:52:27;15.80;99.90
2022;DHT22;1015;49.756;6.994;2022-07-10T05:54:55;15.80;99.90
2022;DHT22;1015;49.756;6.994;2022-07-10T05:57:22;16.30;99.90
2022;DHT22;1015;49.756;6.994;2022-07-10T05:59:49;16.80;99.90
2022;DHT22;1015;49.756;6.994;2022-07-10T06:02:16;16.90;99.90
2022;DHT22;1015;49.756;6.994;2022-07-10T06:04:43;16.70;99.90
2022;DHT22;1015;49.756;6.994;2022-07-10T06:07:10;16.70;99.90
2022;DHT22;1015;49.756;6.994;2022-07-10T06:09:39;17.00;99.90
2022;DHT22;1015;49.756;6.994;2022-07-10T06:12:06;17.10;99.90
2022;DHT22;1015;49.756;6.994;2022-07-10T06:14:33;16.30;99.90
2022;DHT22;1015;49.756;6.994;2022-07-10T06:17:00;15.90;99.90
2022;DHT22;1015;49.756;6.994;2022-07-10T06:19:27;15.30;99.90
2022;DHT22;1015;49.756;6.994;2022-07-10T06:21:54;15.20;99.90
2022;DHT22;1015;49.756;6.994;2022-07-10T06:24:35;14.80;99.90
2022;DHT22;1015;49.756;6.994;2022-07-10T06:27:04;14.30;99.90
2022;DHT22;1015;49.756;6.994;2022-07-10T06:29:31;14.80;99.90
2022;DHT22;1015;49.756;6.994;2022-07-10T06:31:58;15.30;99.90
2022;DHT22;1015;49.756;6.994;2022-07-10T06:34:25;14.60;99.90
2022;DHT22;1015;49.756;6.994;2022-07-10T06:36:52;14.50;99.90
2022;DHT22;1015;49.756;6.994;2022-07-10T06:39:20;15.00;99.90
2022;DHT22;1015;49.756;6.994;2022-07-10T06:41:47;14.30;99.90
2022;DHT22;1015;49.756;6.994;2022-07-10T06:44:15;15.10;99.90
2022;DHT22;1015;49.756;6.994;2022-07-10T06:46:42;14.10;99.90
2022;DHT22;1015;49.756;6.994;2022-07-10T06:49:29;13.50;99.90
2022;DHT22;1015;49.756;6.994;2022-07-10T06:51:56;13.10;99.90
2022;DHT22;1015;49.756;6.994;2022-07-10T06:54:23;13.20;99.90
2022;DHT22;1015;49.756;6.994;2022-07-10T06:56:50;13.00;99.90
2022;DHT22;1015;49.756;6.994;2022-07-10T06:59:18;13.10;99.90
2022;DHT22;1015;49.756;6.994;2022-07-10T07:01:45;13.40;99.90
2022;DHT22;1015;49.756;6.994;2022-07-10T07:04:12;13.80;99.90
2022;DHT22;1015;49.756;6.994;2022-07-10T07:06:39;14.00;99.90
2022;DHT22;1015;49.756;6.994;2022-07-10T07:09:06;15.20;99.90
2022;DHT22;1015;49.756;6.994;2022-07-10T07:11:33;15.40;99.90
2022;DHT22;1015;49.756;6.994;2022-07-10T07:14:00;15.10;99.90
2022;DHT22;1015;49.756;6.994;2022-07-10T07:16:28;15.10;99.90
2022;DHT22;1015;49.756;6.994;2022-07-10T07:19:07;14.90;99.90
2022;DHT22;1015;49.756;6.994;2022-07-10T07:21:34;14.80;99.90
2022;DHT22;1015;49.756;6.994;2022-07-10T07:24:18;14.70;99.90
2022;DHT22;1015;49.756;6.994;2022-07-10T07:26:46;14.30;99.90
2022;DHT22;1015;49.756;6.994;2022-07-10T07:29:13;14.10;99.90
2022;DHT22;1015;49.756;6.994;2022-07-10T07:31:42;13.80;99.90
2022;DHT22;1015;49.756;6.994;2022-07-10T07:34:09;14.10;99.90
2022;DHT22;1015;49.756;6.994;2022-07-10T07:36:37;14.20;99.90
2022;DHT22;1015;49.756;6.994;2022-07-10T07:39:04;14.40;99.90
2022;DHT22;1015;49.756;6.994;2022-07-10T07:41:31;14.10;99.90
2022;DHT22;1015;49.756;6.994;2022-07-10T07:43:58;14.10;99.90
2022;DHT22;1015;49.756;6.994;2022-07-10T07:46:25;14.40;99.90
2022;DHT22;1015;49.756;6.994;2022-07-10T07:48:53;14.30;99.90
2022;DHT22;1015;49.756;6.994;2022-07-10T07:51:20;14.00;99.90
2022;DHT22;1015;49.756;6.994;2022-07-10T07:53:47;13.80;99.90
2022;DHT22;1015;49.756;6.994;2022-07-10T07:56:14;14.60;99.90
2022;DHT22;1015;49.756;6.994;2022-07-10T07:58:41;14.80;99.90
2022;DHT22;1015;49.756;6.994;2022-07-10T08:01:09;14.60;99.90
2022;DHT22;1015;49.756;6.994;2022-07-10T08:03:36;15.00;99.90
2022;DHT22;1015;49.756;6.994;2022-07-10T08:06:04;15.80;99.90
2022;DHT22;1015;49.756;6.994;2022-07-10T08:08:31;15.70;99.90
2022;DHT22;1015;49.756;6.994;2022-07-10T08:10:58;15.40;99.90
2022;DHT22;1015;49.756;6.994;2022-07-10T08:13:25;15.70;99.90
2022;DHT22;1015;49.756;6.994;2022-07-10T08:15:52;15.90;99.90
2022;DHT22;1015;49.756;6.994;2022-07-10T08:18:19;15.80;99.90
2022;DHT22;1015;49.756;6.994;2022-07-10T08:20:46;15.80;99.90
2022;DHT22;1015;49.756;6.994;2022-07-10T08:23:14;16.10;99.90
2022;DHT22;1015;49.756;6.994;2022-07-10T08:25:41;16.70;99.90
2022;DHT22;1015;49.756;6.994;2022-07-10T08:28:08;17.10;99.90
2022;DHT22;1015;49.756;6.994;2022-07-10T08:30:35;17.20;99.90
2022;DHT22;1015;49.756;6.994;2022-07-10T08:33:02;16.80;99.90
2022;DHT22;1015;49.756;6.994;2022-07-10T08:35:30;17.00;99.90
2022;DHT22;1015;49.756;6.994;2022-07-10T08:37:57;17.10;99.90
2022;DHT22;1015;49.756;6.994;2022-07-10T08:40:25;17.80;99.90
2022;DHT22;1015;49.756;6.994;2022-07-10T08:43:00;18.00;99.90
2022;DHT22;1015;49.756;6.994;2022-07-10T08:45:31;16.90;99.90
2022;DHT22;1015;49.756;6.994;2022-07-10T08:48:02;16.30;99.90
2022;DHT22;1015;49.756;6.994;2022-07-10T08:50:32;15.50;99.90
2022;DHT22;1015;49.756;6.994;2022-07-10T08:53:02;15.50;99.90
2022;DHT22;1015;49.756;6.994;2022-07-10T08:55:32;15.30;99.90
2022;DHT22;1015;49.756;6.994;2022-07-10T08:57:59;15.20;99.90
2022;DHT22;1015;49.756;6.994;2022-07-10T09:00:27;15.90;99.90
2022;DHT22;1015;49.756;6.994;2022-07-10T09:02:54;16.30;99.90
2022;DHT22;1015;49.756;6.994;2022-07-10T09:05:22;16.60;99.90
2022;DHT22;1015;49.756;6.994;2022-07-10T09:07:49;16.70;99.90
2022;DHT22;1015;49.756;6.994;2022-07-10T09:10:20;17.20;99.90
2022;DHT22;1015;49.756;6.994;2022-07-10T09:12:54;17.50;99.90
2022;DHT22;1015;49.756;6.994;2022-07-10T09:15:23;17.70;99.90
2022;DHT22;1015;49.756;6.994;2022-07-10T09:17:52;17.80;99.90
2022;DHT22;1015;49.756;6.994;2022-07-10T09:20:27;17.90;99.90
2022;DHT22;1015;49.756;6.994;2022-07-10T09:22:55;18.10;99.90
2022;DHT22;1015;49.756;6.994;2022-07-10T09:25:31;17.40;99.90
2022;DHT22;1015;49.756;6.994;2022-07-10T09:28:01;16.70;99.90
2022;DHT22;1015;49.756;6.994;2022-07-10T09:30:36;17.20;99.90
2022;DHT22;1015;49.756;6.994;2022-07-10T09:33:22;17.50;99.90
2022;DHT22;1015;49.756;6.994;2022-07-10T09:36:02;17.90;99.90
2022;DHT22;1015;49.756;6.994;2022-07-10T09:38:52;18.80;99.90
2022;DHT22;1015;49.756;6.994;2022-07-10T09:41:22;18.60;99.90
2022;DHT22;1015;49.756;6.994;2022-07-10T09:43:52;18.30;99.90
2022;DHT22;1015;49.756;6.994;2022-07-10T09:46:20;17.70;99.90
2022;DHT22;1015;49.756;6.994;2022-07-10T09:48:48;16.60;99.90
2022;DHT22;1015;49.756;6.994;2022-07-10T09:51:15;16.50;99.90
2022;DHT22;1015;49.756;6.994;2022-07-10T09:53:43;17.30;99.90
2022;DHT22;1015;49.756;6.994;2022-07-10T09:56:12;17.50;99.90
2022;DHT22;1015;49.756;6.994;2022-07-10T09:58:40;17.60;99.90
2022;DHT22;1015;49.756;6.994;2022-07-10T10:01:09;18.50;99.90
2022;DHT22;1015;49.756;6.994;2022-07-10T10:03:37;18.20;99.90
2022;DHT22;1015;49.756;6.994;2022-07-10T10:06:10;17.70;99.90
2022;DHT22;1015;49.756;6.994;2022-07-10T10:08:47;18.20;99.90
2022;DHT22;1015;49.756;6.994;2022-07-10T10:11:16;18.10;99.90
2022;DHT22;1015;49.756;6.994;2022-07-10T10:13:46;17.80;99.90
2022;DHT22;1015;49.756;6.994;2022-07-10T10:16:17;17.80;99.90
2022;DHT22;1015;49.756;6.994;2022-07-10T10:18:46;17.90;99.90
2022;DHT22;1015;49.756;6.994;2022-07-10T10:21:31;18.30;99.90
2022;DHT22;1015;49.756;6.994;2022-07-10T10:24:00;18.00;99.90
2022;DHT22;1015;49.756;6.994;2022-07-10T10:26:28;18.60;99.90
2022;DHT22;1015;49.756;6.994;2022-07-10T10:28:57;19.00;99.90
2022;DHT22;1015;49.756;6.994;2022-07-10T10:31:28;19.50;99.90
2022;DHT22;1015;49.756;6.994;2022-07-10T10:33:56;19.00;99.90
2022;DHT22;1015;49.756;6.994;2022-07-10T10:36:44;18.80;99.90
2022;DHT22;1015;49.756;6.994;2022-07-10T10:39:13;18.80;99.90
2022;DHT22;1015;49.756;6.994;2022-07-10T10:41:44;18.70;99.90
2022;DHT22;1015;49.756;6.994;2022-07-10T10:44:25;19.30;99.90
2022;DHT22;1015;49.756;6.994;2022-07-10T10:46:57;18.50;99.90
2022;DHT22;1015;49.756;6.994;2022-07-10T10:49:26;18.20;99.90
2022;DHT22;1015;49.756;6.994;2022-07-10T10:52:09;17.80;99.90
2022;DHT22;1015;49.756;6.994;2022-07-10T10:55:03;18.50;99.90
2022;DHT22;1015;49.756;6.994;2022-07-10T10:57:38;18.80;99.90
2022;DHT22;1015;49.756;6.994;2022-07-10T11:00:30;18.40;99.90
2022;DHT22;1015;49.756;6.994;2022-07-10T11:03:18;18.40;99.90
2022;DHT22;1015;49.756;6.994;2022-07-10T11:05:46;19.40;99.90
2022;DHT22;1015;49.756;6.994;2022-07-10T11:08:14;19.80;99.90
2022;DHT22;1015;49.756;6.994;2022-07-10T11:11:01;20.10;99.90
2022;DHT22;1015;49.756;6.994;2022-07-10T11:13:28;20.10;99.90
2022;DHT22;1015;49.756;6.994;2022-07-10T11:15:56;20.20;99.90
2022;DHT22;1015;49.756;6.994;2022-07-10T11:18:25;20.10;99.90
2022;DHT22;1015;49.756;6.994;2022-07-10T11:20:54;19.50;99.90
2022;DHT22;1015;49.756;6.994;2022-07-10T11:23:39;19.90;99.90
2022;DHT22;1015;49.756;6.994;2022-07-10T11:26:11;19.00;99.90
2022;DHT22;1015;49.756;6.994;2022-07-10T11:28:49;19.20;99.90
2022;DHT22;1015;49.756;6.994;2022-07-10T11:31:16;19.50;99.90
2022;DHT22;1015;49.756;6.994;2022-07-10T11:33:46;19.90;99.90
2022;DHT22;1015;49.756;6.994;2022-07-10T11:36:15;19.50;99.90
2022;DHT22;1015;49.756;6.994;2022-07-10T11:38:43;19.80;99.90
2022;DHT22;1015;49.756;6.994;2022-07-10T11:41:15;19.90;99.90
2022;DHT22;1015;49.756;6.994;2022-07-10T11:43:49;19.70;99.90
2022;DHT22;1015;49.756;6.994;2022-07-10T11:46:17;19.50;99.90
2022;DHT22;1015;49.756;6.994;2022-07-10T11:48:47;19.10;99.90
2022;DHT22;1015;49.756;6.994;2022-07-10T11:51:22;20.20;99.90
2022;DHT22;1015;49.756;6.994;2022-07-10T11:53:58;20.00;99.90
2022;DHT22;1015;49.756;6.994;2022-07-10T11:56:26;19.70;99.90
2022;DHT22;1015;49.756;6.994;2022-07-10T11:58:57;19.90;99.90
2022;DHT22;1015;49.756;6.994;2022-07-10T12:01:24;20.00;99.90
2022;DHT22;1015;49.756;6.994;2022-07-10T12:04:00;19.90;99.90
2022;DHT22;1015;49.756;6.994;2022-07-10T12:06:28;20.10;99.90
2022;DHT22;1015;49.756;6.994;2022-07-10T12:08:56;19.80;99.90
2022;DHT22;1015;49.756;6.994;2022-07-10T12:11:27;21.00;99.90
2022;DHT22;1015;49.756;6.994;2022-07-10T12:14:09;20.50;99.90
2022;DHT22;1015;49.756;6.994;2022-07-10T12:16:36;20.00;99.90
2022;DHT22;1015;49.756;6.994;2022-07-10T12:19:06;20.40;99.90
2022;DHT22;1015;49.756;6.994;2022-07-10T12:21:33;20.00;99.90
2022;DHT22;1015;49.756;6.994;2022-07-10T12:24:01;19.90;99.90
2022;DHT22;1015;49.756;6.994;2022-07-10T12:26:32;19.30;99.90
2022;DHT22;1015;49.756;6.994;2022-07-10T12:29:00;19.40;99.90
2022;DHT22;1015;49.756;6.994;2022-07-10T12:31:28;19.70;99.90
2022;DHT22;1015;49.756;6.994;2022-07-10T12:33:58;20.40;99.90
2022;DHT22;1015;49.756;6.994;2022-07-10T12:36:41;20.40;99.90
2022;DHT22;1015;49.756;6.994;2022-07-10T12:39:09;20.00;99.90
2022;DHT22;1015;49.756;6.994;2022-07-10T12:41:54;19.70;99.90
2022;DHT22;1015;49.756;6.994;2022-07-10T12:44:37;19.60;99.90
2022;DHT22;1015;49.756;6.994;2022-07-10T12:47:06;20.30;99.90
2022;DHT22;1015;49.756;6.994;2022-07-10T12:49:51;20.40;99.90
2022;DHT22;1015;49.756;6.994;2022-07-10T12:52:24;20.60;99.90
2022;DHT22;1015;49.756;6.994;2022-07-10T12:55:09;20.20;99.90
2022;DHT22;1015;49.756;6.994;2022-07-10T12:57:50;19.90;99.90
2022;DHT22;1015;49.756;6.994;2022-07-10T13:00:19;20.00;99.90
2022;DHT22;1015;49.756;6.994;2022-07-10T13:02:47;19.30;99.90
2022;DHT22;1015;49.756;6.994;2022-07-10T13:05:29;19.50;99.90
2022;DHT22;1015;49.756;6.994;2022-07-10T13:08:11;19.70;99.90
2022;DHT22;1015;49.756;6.994;2022-07-10T13:10:41;19.60;99.90
2022;DHT22;1015;49.756;6.994;2022-07-10T13:13:09;20.30;99.90
2022;DHT22;1015;49.756;6.994;2022-07-10T13:15:37;19.50;99.90
2022;DHT22;1015;49.756;6.994;2022-07-10T13:18:07;19.90;99.90
2022;DHT22;1015;49.756;6.994;2022-07-10T13:20:34;20.00;99.90
2022;DHT22;1015;49.756;6.994;2022-07-10T13:23:01;20.10;99.90
2022;DHT22;1015;49.756;6.994;2022-07-10T13:25:29;20.50;99.90
2022;DHT22;1015;49.756;6.994;2022-07-10T13:27:56;20.00;99.90
2022;DHT22;1015;49.756;6.994;2022-07-10T13:30:23;20.10;99.90
2022;DHT22;1015;49.756;6.994;2022-07-10T13:32:50;19.90;99.90
2022;DHT22;1015;49.756;6.994;2022-07-10T13:35:17;19.70;99.90
2022;DHT22;1015;49.756;6.994;2022-07-10T13:37:45;19.80;99.90
2022;DHT22;1015;49.756;6.994;2022-07-10T13:40:12;19.90;99.90
2022;DHT22;1015;49.756;6.994;2022-07-10T13:42:40;20.50;99.90
2022;DHT22;1015;49.756;6.994;2022-07-10T13:45:08;20.00;99.90
2022;DHT22;1015;49.756;6.994;2022-07-10T13:47:36;20.80;99.90
2022;DHT22;1015;49.756;6.994;2022-07-10T13:50:03;21.40;99.90
2022;DHT22;1015;49.756;6.994;2022-07-10T13:52:30;20.70;99.90
2022;DHT22;1015;49.756;6.994;2022-07-10T13:54:57;19.90;99.90
2022;DHT22;1015;49.756;6.994;2022-07-10T13:57:24;20.20;99.90
2022;DHT22;1015;49.756;6.994;2022-07-10T13:59:54;20.50;99.90
2022;DHT22;1015;49.756;6.994;2022-07-10T14:02:21;21.00;99.90
2022;DHT22;1015;49.756;6.994;2022-07-10T14:04:48;20.80;99.90
2022;DHT22;1015;49.756;6.994;2022-07-10T14:07:14;20.20;99.90
2022;DHT22;1015;49.756;6.994;2022-07-10T14:09:41;20.30;99.90
2022;DHT22;1015;49.756;6.994;2022-07-10T14:12:09;19.90;99.90
2022;DHT22;1015;49.756;6.994;2022-07-10T14:14:36;20.60;99.90
2022;DHT22;1015;49.756;6.994;2022-07-10T14:17:04;20.40;99.90
2022;DHT22;1015;49.756;6.994;2022-07-10T14:19:31;20.00;99.90
2022;DHT22;1015;49.756;6.994;2022-07-10T14:21:58;19.90;99.90
2022;DHT22;1015;49.756;6.994;2022-07-10T14:24:25;19.20;99.90
2022;DHT22;1015;49.756;6.994;2022-07-10T14:26:52;20.00;99.90
2022;DHT22;1015;49.756;6.994;2022-07-10T14:29:19;20.00;99.90
2022;DHT22;1015;49.756;6.994;2022-07-10T14:31:46;20.40;99.90
2022;DHT22;1015;49.756;6.994;2022-07-10T14:34:16;20.40;99.90
2022;DHT22;1015;49.756;6.994;2022-07-10T14:36:43;20.60;99.90
2022;DHT22;1015;49.756;6.994;2022-07-10T14:39:10;21.20;99.90
2022;DHT22;1015;49.756;6.994;2022-07-10T14:41:37;19.80;99.90
2022;DHT22;1015;49.756;6.994;2022-07-10T14:44:04;20.30;99.90
2022;DHT22;1015;49.756;6.994;2022-07-10T14:46:31;20.10;99.90
2022;DHT22;1015;49.756;6.994;2022-07-10T14:48:59;20.10;99.90
2022;DHT22;1015;49.756;6.994;2022-07-10T14:51:28;20.90;99.90
2022;DHT22;1015;49.756;6.994;2022-07-10T14:53:55;21.00;99.90
2022;DHT22;1015;49.756;6.994;2022-07-10T14:56:23;21.50;99.90
2022;DHT22;1015;49.756;6.994;2022-07-10T14:58:50;20.80;99.90
2022;DHT22;1015;49.756;6.994;2022-07-10T15:01:17;20.90;99.90
2022;DHT22;1015;49.756;6.994;2022-07-10T15:03:44;20.50;99.90
2022;DHT22;1015;49.756;6.994;2022-07-10T15:06:11;21.30;99.90
2022;DHT22;1015;49.756;6.994;2022-07-10T15:08:39;21.70;99.90
2022;DHT22;1015;49.756;6.994;2022-07-10T15:11:06;21.80;99.90
2022;DHT22;1015;49.756;6.994;2022-07-10T15:13:33;20.80;99.90
2022;DHT22;1015;49.756;6.994;2022-07-10T15:16:00;20.60;99.90
2022;DHT22;1015;49.756;6.994;2022-07-10T15:18:27;20.90;99.90
2022;DHT22;1015;49.756;6.994;2022-07-10T15:20:54;20.70;99.90
2022;DHT22;1015;49.756;6.994;2022-07-10T15:23:22;20.10;99.90
2022;DHT22;1015;49.756;6.994;2022-07-10T15:25:50;20.30;99.90
2022;DHT22;1015;49.756;6.994;2022-07-10T15:28:17;20.30;99.90
2022;DHT22;1015;49.756;6.994;2022-07-10T15:30:44;20.60;99.90
2022;DHT22;1015;49.756;6.994;2022-07-10T15:33:11;20.60;99.90
2022;DHT22;1015;49.756;6.994;2022-07-10T15:35:38;20.50;99.90
2022;DHT22;1015;49.756;6.994;2022-07-10T15:38:05;20.30;99.90
2022;DHT22;1015;49.756;6.994;2022-07-10T15:40:32;19.90;99.90
2022;DHT22;1015;49.756;6.994;2022-07-10T15:43:01;19.80;99.90
2022;DHT22;1015;49.756;6.994;2022-07-10T15:45:29;19.80;99.90
2022;DHT22;1015;49.756;6.994;2022-07-10T15:47:56;19.40;99.90
2022;DHT22;1015;49.756;6.994;2022-07-10T15:50:23;19.70;99.90
2022;DHT22;1015;49.756;6.994;2022-07-10T15:52:50;19.70;99.90
2022;DHT22;1015;49.756;6.994;2022-07-10T15:55:17;19.80;99.90
2022;DHT22;1015;49.756;6.994;2022-07-10T15:57:43;19.50;99.90
2022;DHT22;1015;49.756;6.994;2022-07-10T16:00:12;19.30;99.90
2022;DHT22;1015;49.756;6.994;2022-07-10T16:02:39;19.40;99.90
2022;DHT22;1015;49.756;6.994;2022-07-10T16:05:07;19.60;99.90
2022;DHT22;1015;49.756;6.994;2022-07-10T16:07:34;19.80;99.90
2022;DHT22;1015;49.756;6.994;2022-07-10T16:10:01;19.80;99.90
2022;DHT22;1015;49.756;6.994;2022-07-10T16:12:28;19.70;99.90
2022;DHT22;1015;49.756;6.994;2022-07-10T16:14:55;19.90;99.90